Time;durP1;ratioP1;P1;durP2;ratioP2;P2;SDS_P1;SDS_P2;PMS_P1;PMS_P2;Temp;Humidity;BMP_temperature;BMP_pressure;BME280_temperature;BME280_humidity;BME280_pressure;Samples;Min_cycle;Max_cycle;Signal;HPM_P1;HPM_P2
2023/02/09 00:03:40;;;;;;;23.90;9.93;;;;;;;-0.44;60.16;102181.09;10276559;28;20057;-60
2023/02/09 00:08:42;;;;;;;19.95;9.00;;;;;;;-0.47;59.80;102183.03;10287010;28;20054;-60
2023/02/09 00:13:43;;;;;;;20.00;9.32;;;;;;;-0.47;60.64;102177.75;10295543;28;20057;-60
2023/02/09 00:18:44;;;;;;;25.65;10.63;;;;;;;-0.49;60.20;102153.19;10296473;28;20062;-62
2023/02/09 00:23:46;;;;;;;19.38;8.48;;;;;;;-0.52;60.40;102161.22;10299749;28;20055;-61
2023/02/09 00:28:47;;;;;;;22.52;9.75;;;;;;;-0.54;60.23;102157.75;10302109;28;20055;-61
2023/02/09 00:33:48;;;;;;;23.38;10.25;;;;;;;-0.62;60.51;102155.41;10297137;28;20055;-61
2023/02/09 00:38:50;;;;;;;21.02;8.68;;;;;;;-0.66;60.44;102145.88;10298960;28;20082;-61
2023/02/09 00:43:51;;;;;;;23.42;9.32;;;;;;;-0.76;61.20;102133.97;10299446;28;20066;-61
2023/02/09 00:48:52;;;;;;;17.92;8.15;;;;;;;-0.80;60.83;102138.50;10297828;28;20047;-60
2023/02/09 00:53:54;;;;;;;24.00;10.48;;;;;;;-0.84;61.24;102142.19;10299437;28;20046;-62
2023/02/09 00:58:55;;;;;;;22.67;9.10;;;;;;;-0.90;61.80;102148.53;10304397;28;20050;-62
2023/02/09 01:03:57;;;;;;;20.60;10.40;;;;;;;-0.73;61.13;102142.63;10265066;28;20050;-63
2023/02/09 01:08:59;;;;;;;18.48;9.65;;;;;;;-0.68;61.18;102126.59;10300983;28;20054;-62
2023/02/09 01:14:03;;;;;;;20.98;9.20;;;;;;;-0.69;60.86;102120.47;10305587;28;20047;-62
2023/02/09 01:19:04;;;;;;;22.60;10.25;;;;;;;-0.83;61.67;102133.31;10291683;28;20138;-60
2023/02/09 01:24:06;;;;;;;23.80;10.05;;;;;;;-0.91;61.76;102124.84;10292851;28;20066;-60
2023/02/09 01:29:11;;;;;;;17.30;9.23;;;;;;;-0.88;61.22;102117.66;10288816;28;20051;-62
2023/02/09 01:34:16;;;;;;;20.08;9.23;;;;;;;-1.03;61.47;102121.75;10286249;28;20047;-60
2023/02/09 01:39:17;;;;;;;22.95;9.32;;;;;;;-0.95;61.26;102113.53;10284700;28;20070;-60
2023/02/09 01:44:19;;;;;;;22.50;8.63;;;;;;;-0.94;61.59;102103.84;10285039;28;20063;-59
2023/02/09 01:49:26;;;;;;;17.15;8.68;;;;;;;-1.03;61.46;102103.28;10288289;28;20055;-59
2023/02/09 01:54:33;;;;;;;23.02;8.85;;;;;;;-1.12;61.96;102108.91;10280711;28;20056;-61
2023/02/09 01:59:38;;;;;;;20.23;9.83;;;;;;;-1.15;61.69;102097.59;10274174;28;20356;-60
2023/02/09 02:04:43;;;;;;;22.50;9.30;;;;;;;-1.14;61.85;102096.69;10285836;28;20062;-60
2023/02/09 02:09:45;;;;;;;48.83;18.98;;;;;;;-1.12;61.50;102090.44;10286526;28;20042;-62
2023/02/09 02:14:46;;;;;;;21.55;10.40;;;;;;;-1.13;61.59;102075.50;10284121;28;20151;-61
2023/02/09 02:20:04;;;;;;;26.05;9.68;;;;;;;-1.12;61.63;102061.41;10283351;28;20105;-61
2023/02/09 02:25:31;;;;;;;22.73;9.60;;;;;;;-1.15;61.69;102060.66;10284430;28;20051;-60
2023/02/09 02:30:37;;;;;;;21.43;9.53;;;;;;;-1.19;61.47;102062.53;10284895;28;20212;-62
2023/02/09 02:35:57;;;;;;;24.63;8.65;;;;;;;-1.31;61.96;102063.00;10283141;28;20042;-58
2023/02/09 02:41:17;;;;;;;23.65;10.40;;;;;;;-1.31;61.90;102053.31;10283601;28;20054;-59
2023/02/09 02:46:29;;;;;;;21.83;9.30;;;;;;;-1.32;61.58;102048.09;10282918;28;20053;-60
2023/02/09 02:51:36;;;;;;;22.27;9.80;;;;;;;-1.39;61.88;102044.84;10287822;28;20051;-59
2023/02/09 02:56:42;;;;;;;17.15;6.93;;;;;;;-1.41;61.95;102057.22;10287184;28;20051;-60
2023/02/09 03:01:54;;;;;;;20.30;8.00;;;;;;;-1.42;61.93;102052.88;10283196;28;20047;-61
2023/02/09 03:06:55;;;;;;;18.38;8.27;;;;;;;-1.48;61.64;102053.94;10287034;28;20100;-60
2023/02/09 03:12:19;;;;;;;22.25;9.10;;;;;;;-1.53;61.94;102055.88;10284866;28;20070;-60
2023/02/09 03:17:42;;;;;;;22.48;8.82;;;;;;;-1.61;62.07;102052.66;10263202;28;20059;-61
2023/02/09 03:22:55;;;;;;;26.10;10.98;;;;;;;-1.69;62.32;102060.84;10282587;28;20048;-62
2023/02/09 03:28:11;;;;;;;23.58;9.75;;;;;;;-1.70;62.47;102060.91;10270739;28;20046;-59
2023/02/09 03:33:21;;;;;;;28.23;10.43;;;;;;;-1.71;62.44;102060.03;10283238;28;20074;-61
2023/02/09 03:38:23;;;;;;;22.42;8.75;;;;;;;-1.82;62.44;102068.34;10283083;28;20059;-59
2023/02/09 03:44:25;;;;;;;20.52;9.73;;;;;;;-1.85;62.80;102071.06;10282358;28;20050;-60
2023/02/09 03:48:46;;;;;;;26.67;8.57;;;;;;;-1.85;63.04;102068.44;10284090;28;20055;-61
2023/02/09 03:53:48;;;;;;;25.42;9.52;;;;;;;-1.92;62.99;102072.19;10286843;28;20671;-61
2023/02/09 03:58:50;;;;;;;21.17;8.50;;;;;;;-1.83;62.92;102058.69;10284944;28;20059;-58
2023/02/09 04:03:51;;;;;;;21.67;9.27;;;;;;;-1.85;62.82;102060.53;10289799;28;20054;-62
2023/02/09 04:08:52;;;;;;;25.17;9.07;;;;;;;-1.84;62.70;102057.00;10282298;28;20055;-59
2023/02/09 04:13:54;;;;;;;24.92;9.15;;;;;;;-1.87;62.94;102051.81;10281867;28;20134;-61
2023/02/09 04:18:56;;;;;;;25.35;9.43;;;;;;;-1.93;62.98;102045.91;10286339;28;20062;-63
2023/02/09 04:23:57;;;;;;;25.10;9.77;;;;;;;-1.92;62.90;102045.00;10283886;28;20526;-61
2023/02/09 04:28:58;;;;;;;19.15;8.85;;;;;;;-1.85;62.69;102038.59;10279469;28;20150;-61
2023/02/09 04:34:00;;;;;;;22.20;8.88;;;;;;;-1.85;62.53;102055.25;10280326;28;20502;-59
2023/02/09 04:39:02;;;;;;;27.30;10.40;;;;;;;-1.89;62.92;102055.44;10280671;28;20090;-62
2023/02/09 04:44:03;;;;;;;27.48;10.45;;;;;;;-2.04;62.86;102057.66;10285269;28;20051;-60
2023/02/09 04:49:04;;;;;;;22.15;9.52;;;;;;;-2.04;62.97;102047.13;10284883;28;20047;-59
2023/02/09 04:54:06;;;;;;;21.17;10.20;;;;;;;-2.03;63.11;102040.09;10288656;28;20081;-62
2023/02/09 05:04:29;;;;;;;25.50;10.85;;;;;;;-2.14;62.87;102050.13;10289401;28;20044;-60
2023/02/09 05:09:30;;;;;;;21.60;9.25;;;;;;;-2.25;63.39;102063.66;10290836;28;20051;-59
2023/02/09 05:14:32;;;;;;;21.98;9.48;;;;;;;-2.30;63.76;102061.19;10293028;28;20556;-61
2023/02/09 05:19:33;;;;;;;25.27;8.65;;;;;;;-2.25;63.40;102061.91;10291794;28;20051;-62
2023/02/09 05:24:35;;;;;;;21.88;10.02;;;;;;;-2.24;63.08;102066.25;10295745;28;20051;-62
2023/02/09 05:29:36;;;;;;;20.25;9.10;;;;;;;-2.28;63.32;102064.63;10293898;28;20051;-62
2023/02/09 05:34:37;;;;;;;19.05;9.43;;;;;;;-2.26;63.39;102059.31;10298365;28;20113;-61
2023/02/09 05:39:39;;;;;;;24.08;8.93;;;;;;;-2.46;63.98;102055.56;10295167;28;20054;-62
2023/02/09 05:44:48;;;;;;;23.17;8.90;;;;;;;-2.40;63.61;102057.13;10294369;28;20071;-61
2023/02/09 05:49:51;;;;;;;25.45;9.25;;;;;;;-2.34;63.53;102054.28;10288607;28;20061;-60
2023/02/09 05:54:52;;;;;;;28.10;10.13;;;;;;;-2.31;63.53;102059.47;10291478;28;20058;-60
2023/02/09 05:59:54;;;;;;;25.38;10.70;;;;;;;-2.37;63.17;102053.53;10289889;28;20050;-61
2023/02/09 06:04:55;;;;;;;26.10;11.27;;;;;;;-2.35;63.46;102059.59;10288994;28;20054;-60
2023/02/09 06:09:57;;;;;;;27.67;10.57;;;;;;;-2.36;63.80;102050.00;10287735;28;20050;-63
2023/02/09 06:14:58;;;;;;;31.33;9.80;;;;;;;-2.35;63.42;102063.13;10282702;28;20049;-61
2023/02/09 06:20:00;;;;;;;26.40;11.40;;;;;;;-2.40;63.92;102072.94;10269125;28;20117;-63
2023/02/09 06:25:02;;;;;;;27.70;9.60;;;;;;;-2.47;63.88;102077.56;10276406;28;20493;-66
2023/02/09 06:30:04;;;;;;;23.60;11.02;;;;;;;-2.38;63.63;102086.91;10301900;28;20074;-65
2023/02/09 06:35:05;;;;;;;24.67;9.65;;;;;;;-2.30;64.09;102071.72;10275672;28;20046;-65
2023/02/09 06:40:07;;;;;;;27.75;9.90;;;;;;;-2.30;63.91;102082.25;10301208;28;20110;-66
2023/02/09 06:45:13;;;;;;;24.20;9.23;;;;;;;-2.33;64.02;102087.63;10296999;28;20086;-65
2023/02/09 06:50:16;;;;;;;24.75;10.10;;;;;;;-2.29;63.86;102081.34;10305449;28;20045;-65
2023/02/09 06:55:18;;;;;;;24.92;10.35;;;;;;;-2.21;63.58;102087.22;10289505;28;20086;-65
2023/02/09 07:00:20;;;;;;;25.30;9.00;;;;;;;-2.28;63.94;102090.97;10291610;28;20057;-65
2023/02/09 07:05:22;;;;;;;23.85;9.73;;;;;;;-2.29;63.88;102089.25;10307027;28;20094;-65
2023/02/09 07:10:23;;;;;;;28.20;11.00;;;;;;;-2.19;63.52;102081.91;10310369;28;20058;-66
2023/02/09 07:15:24;;;;;;;27.80;12.15;;;;;;;-2.15;64.12;102098.44;10306516;28;20051;-65
2023/02/09 07:20:26;;;;;;;26.27;10.73;;;;;;;-2.11;63.34;102098.31;10304782;28;20050;-65
2023/02/09 07:25:27;;;;;;;31.95;11.15;;;;;;;-2.14;63.79;102105.47;10301986;28;20068;-66
2023/02/09 07:30:29;;;;;;;31.33;11.65;;;;;;;-2.07;64.25;102104.34;10298826;28;20050;-66
2023/02/09 07:35:30;;;;;;;28.15;10.68;;;;;;;-1.97;63.75;102100.50;10260557;28;20079;-66
2023/02/09 07:40:32;;;;;;;35.95;12.20;;;;;;;-1.91;63.79;102117.88;10278547;28;20380;-65
2023/02/09 07:45:33;;;;;;;46.47;19.33;;;;;;;-1.83;64.24;102103.50;10298500;28;20051;-66
2023/02/09 07:50:34;;;;;;;45.50;19.55;;;;;;;-1.66;63.99;102109.97;10308224;28;20051;-65
2023/02/09 07:55:38;;;;;;;39.13;17.45;;;;;;;-1.55;63.91;102114.88;10301327;28;20062;-65
2023/02/09 08:00:40;;;;;;;37.90;16.05;;;;;;;-1.43;64.08;102110.00;10309072;28;20055;-65
2023/02/09 08:05:55;;;;;;;32.17;15.30;;;;;;;-1.32;64.00;102111.41;10289337;28;20086;-64
2023/02/09 08:10:59;;;;;;;33.10;15.88;;;;;;;-1.13;64.07;102120.34;10299450;28;20049;-65
2023/02/09 08:16:04;;;;;;;34.40;13.10;;;;;;;-0.97;63.85;102117.16;10314891;28;20051;-65
2023/02/09 08:21:08;;;;;;;36.67;13.05;;;;;;;-0.79;63.65;102119.09;10308420;28;20039;-64
2023/02/09 08:26:12;;;;;;;36.22;13.48;;;;;;;-0.65;63.63;102116.78;10313244;28;20034;-64
2023/02/09 08:31:16;;;;;;;29.30;12.50;;;;;;;-0.50;63.24;102114.47;10316435;28;20055;-64
2023/02/09 08:36:19;;;;;;;30.85;13.85;;;;;;;-0.36;63.89;102105.97;10319642;28;20365;-65
2023/02/09 08:41:20;;;;;;;30.35;12.15;;;;;;;-0.20;63.52;102109.72;10313535;28;20051;-64
2023/02/09 08:46:22;;;;;;;32.95;11.38;;;;;;;-0.01;63.86;102110.69;10307180;28;20050;-65
2023/02/09 08:51:23;;;;;;;31.13;12.90;;;;;;;0.19;63.46;102111.63;10301779;28;20058;-64
2023/02/09 08:56:25;;;;;;;28.25;12.13;;;;;;;0.37;62.95;102117.91;10296039;28;20051;-66
2023/02/09 09:01:26;;;;;;;28.58;11.48;;;;;;;0.51;63.30;102110.22;10308127;28;20058;-64
2023/02/09 09:06:28;;;;;;;30.58;12.35;;;;;;;0.59;63.52;102108.13;10306400;28;20057;-65
2023/02/09 09:11:29;;;;;;;26.70;11.77;;;;;;;0.73;62.86;102098.69;10302452;28;20039;-66
2023/02/09 09:16:31;;;;;;;27.33;12.27;;;;;;;0.88;63.20;102092.69;10280090;28;20078;-65
2023/02/09 09:21:32;;;;;;;31.80;12.07;;;;;;;0.98;63.19;102083.41;10295798;28;20058;-65
2023/02/09 09:26:34;;;;;;;30.77;13.38;;;;;;;1.14;62.18;102075.59;10307255;28;20054;-65
2023/02/09 09:31:36;;;;;;;29.65;12.07;;;;;;;1.26;62.75;102068.84;10296604;28;20058;-63
2023/02/09 09:36:38;;;;;;;26.25;10.93;;;;;;;1.42;62.72;102071.63;10309951;28;20050;-62
2023/02/09 09:41:40;;;;;;;30.55;12.73;;;;;;;1.55;61.95;102072.75;10315031;28;20047;-63
2023/02/09 09:46:46;;;;;;;33.17;12.73;;;;;;;1.69;61.31;102081.84;10314896;28;20034;-63
2023/02/09 09:51:54;;;;;;;31.83;12.85;;;;;;;1.64;62.02;102076.78;10312328;28;20066;-63
2023/02/09 09:56:56;;;;;;;32.55;13.38;;;;;;;1.82;61.41;102076.75;10312666;28;20055;-63
2023/02/09 10:02:02;;;;;;;26.67;11.50;;;;;;;1.87;60.79;102080.06;10315423;28;20043;-63
2023/02/09 10:07:14;;;;;;;35.55;13.18;;;;;;;1.87;60.45;102082.72;10316031;28;20062;-63
2023/02/09 10:12:28;;;;;;;32.50;13.88;;;;;;;2.04;60.62;102090.69;10312711;28;20146;-63
2023/02/09 10:17:30;;;;;;;30.60;14.57;;;;;;;2.25;59.94;102098.47;10313493;28;20074;-63
2023/02/09 10:22:31;;;;;;;29.40;12.55;;;;;;;2.30;59.87;102093.78;10309835;28;20058;-63
2023/02/09 10:27:33;;;;;;;31.40;13.15;;;;;;;2.42;59.88;102093.16;10311326;28;20034;-63
2023/02/09 10:32:42;;;;;;;30.13;13.90;;;;;;;2.58;59.56;102079.94;10309014;28;20035;-63
2023/02/09 10:37:43;;;;;;;40.20;14.63;;;;;;;2.76;59.45;102083.41;10317980;28;20051;-63
2023/02/09 10:42:59;;;;;;;27.40;13.70;;;;;;;2.91;58.65;102082.56;10300275;28;20043;-63
2023/02/09 10:48:17;;;;;;;31.98;13.75;;;;;;;3.09;58.51;102063.91;10316156;28;20065;-63
2023/02/09 10:53:23;;;;;;;;;;;;;;;3.17;59.12;102067.84;10309430;28;20047;-63
2023/02/09 10:58:32;;;;;;;33.67;14.15;;;;;;;3.26;58.58;102066.50;10317163;28;19910;-63
2023/02/09 11:03:35;;;;;;;32.47;13.82;;;;;;;3.45;58.24;102070.75;10315246;28;20035;-62
2023/02/09 11:08:42;;;;;;;32.47;14.40;;;;;;;3.68;57.63;102067.66;10312395;28;20042;-62
2023/02/09 11:13:43;;;;;;;23.10;9.93;;;;;;;3.78;57.36;102060.00;10313111;28;20046;-63
2023/02/09 11:18:55;;;;;;;31.08;13.23;;;;;;;3.47;57.54;102056.44;10311090;28;20051;-63
2023/02/09 11:24:06;;;;;;;37.45;13.65;;;;;;;3.40;57.33;102067.50;10312313;28;20047;-62
2023/02/09 11:29:33;;;;;;;32.25;14.90;;;;;;;3.47;55.95;102047.59;10313662;28;20034;-63
2023/02/09 11:35:09;;;;;;;35.75;14.15;;;;;;;3.49;56.07;102043.06;10294259;28;20047;-63
2023/02/09 11:40:32;;;;;;;31.38;14.02;;;;;;;3.95;55.30;102037.72;10291258;28;20035;-63
2023/02/09 11:45:51;;;;;;;29.50;15.77;;;;;;;4.17;55.15;102030.16;10311234;28;20046;-63
2023/02/09 11:51:06;;;;;;;30.33;14.13;;;;;;;4.28;54.67;102032.16;10309909;28;20098;-63
2023/02/09 11:56:12;;;;;;;35.13;15.70;;;;;;;4.34;54.55;102022.94;10313470;28;20047;-63
2023/02/09 12:01:38;;;;;;;32.92;13.95;;;;;;;4.42;53.96;102025.97;10320581;28;20027;-63
2023/02/09 12:06:53;;;;;;;31.85;15.20;;;;;;;4.51;53.73;102025.44;10318625;28;20128;-62
2023/02/09 12:12:09;;;;;;;30.52;15.50;;;;;;;4.71;53.32;102016.19;10306677;28;20114;-63
2023/02/09 12:17:17;;;;;;;34.67;15.05;;;;;;;4.90;53.41;102009.72;10315086;28;20101;-65
2023/02/09 12:22:34;;;;;;;32.10;15.02;;;;;;;4.83;53.16;102014.56;10307801;28;20110;-65
2023/02/09 12:27:37;;;;;;;33.75;15.80;;;;;;;4.95;52.79;102008.44;10311134;28;20031;-64
2023/02/09 12:32:42;;;;;;;37.53;16.33;;;;;;;5.19;52.12;102014.97;10300785;28;20074;-64
2023/02/09 12:38:12;;;;;;;29.40;14.88;;;;;;;5.16;52.05;102008.88;10320465;28;20042;-63
2023/02/09 12:43:25;;;;;;;35.33;15.55;;;;;;;5.23;51.87;102005.81;10314367;28;20049;-64
2023/02/09 12:48:27;;;;;;;28.38;14.52;;;;;;;5.30;51.54;102010.63;10312394;28;20305;-64
2023/02/09 12:53:39;;;;;;;32.65;16.55;;;;;;;5.33;51.24;102010.44;10312540;28;20043;-66
2023/02/09 12:58:44;;;;;;;32.75;15.13;;;;;;;5.45;51.46;102005.25;10309074;28;20070;-65
2023/02/09 13:04:04;;;;;;;28.92;14.57;;;;;;;5.52;50.81;101995.88;10311022;28;20031;-65
2023/02/09 13:09:13;;;;;;;30.73;14.82;;;;;;;5.52;50.85;102006.56;10314028;28;20038;-63
2023/02/09 13:14:17;;;;;;;30.95;15.23;;;;;;;5.66;50.59;102010.97;10308936;28;20349;-64
2023/02/09 13:19:49;;;;;;;28.20;14.18;;;;;;;5.43;49.95;102013.38;10311302;28;20043;-64
2023/02/09 13:24:59;;;;;;;30.02;16.40;;;;;;;5.61;49.87;102005.06;10310483;28;20285;-64
2023/02/09 13:30:00;;;;;;;28.27;14.43;;;;;;;5.60;49.78;102004.22;10305458;28;20069;-65
2023/02/09 13:35:23;;;;;;;28.33;14.85;;;;;;;5.77;49.51;102005.78;10301414;28;20091;-65
2023/02/09 13:40:28;;;;;;;33.60;15.75;;;;;;;5.97;49.04;101990.25;10307725;28;20437;-64
2023/02/09 13:45:30;;;;;;;30.27;14.50;;;;;;;6.12;48.60;101973.16;10317004;28;20054;-65
2023/02/09 13:50:32;;;;;;;28.15;12.98;;;;;;;6.24;48.38;101980.31;10308770;28;20119;-64
2023/02/09 13:55:36;;;;;;;29.70;15.63;;;;;;;6.37;48.65;101991.00;10311023;28;20134;-64
2023/02/09 14:00:46;;;;;;;25.17;12.63;;;;;;;6.55;47.91;101986.16;10311654;28;20120;-64
2023/02/09 14:05:58;;;;;;;27.90;13.70;;;;;;;6.63;47.81;101980.25;10295143;28;20082;-65
2023/02/09 14:11:25;;;;;;;29.10;14.48;;;;;;;6.79;47.45;101980.00;10305477;28;20035;-65
2023/02/09 14:16:42;;;;;;;25.92;12.98;;;;;;;6.85;47.58;101991.13;10305051;28;20070;-65
2023/02/09 14:21:54;;;;;;;28.88;13.65;;;;;;;6.74;47.91;101978.53;10308995;28;20071;-64
2023/02/09 14:27:03;;;;;;;31.17;14.20;;;;;;;6.79;46.95;101970.16;10309816;28;20062;-65
2023/02/09 14:32:34;;;;;;;28.33;13.38;;;;;;;6.59;47.17;101994.81;10303522;28;20035;-65
2023/02/09 14:37:36;;;;;;;28.67;14.63;;;;;;;6.68;47.26;101978.97;10310698;28;20031;-64
2023/02/09 14:42:55;;;;;;;32.13;14.10;;;;;;;6.61;46.60;101982.19;10313283;28;20046;-65
2023/02/09 14:47:57;;;;;;;31.55;14.05;;;;;;;6.54;46.65;101974.63;10310389;28;20047;-66
2023/02/09 14:53:05;;;;;;;25.88;12.48;;;;;;;6.44;46.32;101984.25;10307014;28;20059;-64
2023/02/09 14:58:22;;;;;;;28.23;13.15;;;;;;;6.32;46.27;101977.13;10304372;28;20074;-64
2023/02/09 15:03:23;;;;;;;28.48;13.73;;;;;;;6.27;46.10;101984.59;10304759;28;20086;-64
2023/02/09 15:08:29;;;;;;;26.48;12.65;;;;;;;6.21;46.18;101977.00;10310855;28;20333;-65
2023/02/09 15:13:31;;;;;;;28.67;13.60;;;;;;;6.44;46.50;101986.09;10309676;28;20432;-64
2023/02/09 15:18:34;;;;;;;31.80;14.15;;;;;;;6.29;46.04;101983.50;10308106;28;20085;-64
2023/02/09 15:23:36;;;;;;;28.60;14.60;;;;;;;6.14;46.35;101969.44;10308289;28;20054;-64
2023/02/09 15:28:38;;;;;;;29.08;13.70;;;;;;;6.21;46.11;101975.19;10302422;28;20051;-64
2023/02/09 15:33:39;;;;;;;29.48;14.57;;;;;;;6.04;46.64;101984.38;10307974;28;20050;-64
2023/02/09 15:38:41;;;;;;;34.83;15.27;;;;;;;5.90;47.14;102011.13;10307970;28;20043;-64
2023/02/09 15:49:04;;;;;;;35.45;14.32;;;;;;;5.76;47.06;102002.22;10292402;28;20058;-64
2023/02/09 15:54:16;;;;;;;31.25;15.60;;;;;;;5.67;47.33;102010.88;10297050;28;20069;-63
2023/02/09 15:59:20;;;;;;;32.60;16.30;;;;;;;5.52;47.62;102003.88;10295454;28;20061;-64
2023/02/09 16:04:22;;;;;;;29.35;14.90;;;;;;;5.58;47.90;101984.81;10300847;28;20050;-64
2023/02/09 16:09:26;;;;;;;32.83;16.02;;;;;;;5.40;48.12;101991.38;10309623;28;20051;-63
2023/02/09 16:14:28;;;;;;;33.97;15.82;;;;;;;5.27;48.65;102024.19;10316156;28;20043;-65
2023/02/09 16:19:29;;;;;;;35.53;16.40;;;;;;;5.23;48.57;102006.66;10308870;28;20051;-65
2023/02/09 16:24:43;;;;;;;33.92;14.75;;;;;;;4.92;48.90;102021.97;10301970;28;20051;-65
2023/02/09 16:29:45;;;;;;;31.65;15.98;;;;;;;4.79;49.22;102029.03;10305611;28;20039;-65
2023/02/09 16:34:47;;;;;;;29.73;14.93;;;;;;;4.61;49.53;102043.50;10286602;28;20063;-65
2023/02/09 16:39:48;;;;;;;33.42;15.68;;;;;;;4.51;49.75;102052.06;10304748;28;20051;-64
2023/02/09 16:44:50;;;;;;;37.95;16.95;;;;;;;4.41;49.93;102039.41;10310185;28;20035;-64
2023/02/09 16:50:01;;;;;;;30.35;15.10;;;;;;;4.50;49.97;102045.03;10312295;28;20078;-64
2023/02/09 16:55:05;;;;;;;33.88;15.23;;;;;;;4.42;50.22;102059.75;10314612;28;20047;-64
2023/02/09 17:00:07;;;;;;;30.30;15.70;;;;;;;4.41;50.10;102061.56;10301776;28;20463;-60
2023/02/09 17:05:35;;;;;;;36.72;16.52;;;;;;;4.30;50.33;102064.00;10285531;28;20055;-61
2023/02/09 17:10:37;;;;;;;31.05;15.57;;;;;;;4.11;50.99;102089.09;10274494;28;20059;-61
2023/02/09 17:15:42;;;;;;;36.55;14.55;;;;;;;4.10;50.88;102084.69;10269973;28;20129;-61
2023/02/09 17:20:49;;;;;;;33.15;15.45;;;;;;;4.11;51.24;102074.94;10285330;28;20063;-59
2023/02/09 17:25:53;;;;;;;37.90;16.35;;;;;;;3.97;51.30;102091.72;10266927;28;20062;-60
2023/02/09 17:30:59;;;;;;;29.90;13.88;;;;;;;3.87;51.23;102094.03;10282610;28;20078;-60
2023/02/09 17:36:00;;;;;;;33.83;16.52;;;;;;;3.82;51.36;102109.41;10283304;28;20070;-62
2023/02/09 17:41:30;;;;;;;33.78;17.00;;;;;;;3.77;51.42;102107.00;10283059;28;20069;-58
2023/02/09 17:46:31;;;;;;;42.28;16.27;;;;;;;3.70;51.92;102102.97;10281075;28;20099;-60
2023/02/09 17:51:39;;;;;;;36.40;16.65;;;;;;;3.62;52.12;102097.25;10278619;28;20580;-58
2023/02/09 17:56:41;;;;;;;37.58;19.00;;;;;;;3.53;52.32;102105.75;10278259;28;20117;-60
2023/02/09 18:01:45;;;;;;;33.97;16.50;;;;;;;3.46;52.12;102115.88;10276719;28;20051;-59
2023/02/09 18:06:46;;;;;;;38.72;16.48;;;;;;;3.37;52.92;102127.84;10266825;28;20051;-60
2023/02/09 18:11:54;;;;;;;45.28;19.13;;;;;;;3.31;53.30;102130.00;10278539;28;20055;-61
2023/02/09 18:16:55;;;;;;;38.00;17.85;;;;;;;3.25;53.70;102122.38;10281140;28;20050;-61
2023/02/09 18:22:00;;;;;;;42.03;19.30;;;;;;;3.22;53.74;102120.75;10285851;28;20055;-61
2023/02/09 18:27:01;;;;;;;37.33;18.77;;;;;;;3.15;53.79;102112.25;10286507;28;20112;-60
2023/02/09 18:32:03;;;;;;;45.22;19.75;;;;;;;3.14;53.86;102123.84;10277831;28;20043;-59
2023/02/09 18:37:05;;;;;;;39.60;19.73;;;;;;;3.07;54.32;102141.03;10279740;28;20054;-59
2023/02/09 18:42:10;;;;;;;41.80;19.20;;;;;;;3.01;54.15;102153.81;10249120;28;20047;-58
2023/02/09 18:47:13;;;;;;;51.92;23.83;;;;;;;3.00;54.78;102154.72;10248827;28;20051;-59
2023/02/09 18:52:19;;;;;;;48.15;22.27;;;;;;;2.97;54.82;102161.94;10277013;28;20130;-60
2023/02/09 18:57:21;;;;;;;50.33;24.45;;;;;;;2.94;54.48;102163.88;10257048;28;20067;-60
2023/02/09 19:02:23;;;;;;;52.63;22.48;;;;;;;2.87;54.71;102158.06;10271827;28;20079;-61
2023/02/09 19:07:24;;;;;;;42.53;20.48;;;;;;;2.85;55.67;102169.69;10274063;28;20478;-58
2023/02/09 19:12:26;;;;;;;49.50;22.88;;;;;;;2.84;55.56;102181.25;10273963;28;20059;-60
2023/02/09 19:17:28;;;;;;;45.38;21.15;;;;;;;2.80;55.64;102180.53;10275490;28;20078;-59
2023/02/09 19:22:31;;;;;;;41.63;19.85;;;;;;;2.75;56.08;102178.13;10256170;28;20047;-60
2023/02/09 19:27:32;;;;;;;45.78;20.80;;;;;;;2.70;55.96;102187.28;10270963;28;20051;-60
2023/02/09 19:32:33;;;;;;;41.90;20.92;;;;;;;2.66;56.23;102185.72;10275419;28;20051;-59
2023/02/09 19:37:36;;;;;;;46.92;21.75;;;;;;;2.62;56.22;102187.66;10278955;28;20059;-60
2023/02/09 19:42:37;;;;;;;52.45;23.50;;;;;;;2.55;56.58;102192.44;10277215;28;20051;-60
2023/02/09 19:47:39;;;;;;;52.80;24.67;;;;;;;2.52;56.96;102189.09;10283771;28;20098;-61
2023/02/09 19:52:42;;;;;;;54.80;24.45;;;;;;;2.47;57.08;102201.72;10285899;28;20058;-60
2023/02/09 19:57:44;;;;;;;47.97;21.70;;;;;;;2.39;57.19;102207.44;10279988;28;20051;-61
2023/02/09 20:02:46;;;;;;;51.78;24.30;;;;;;;2.36;56.45;102213.75;10265156;28;20115;-59
2023/02/09 20:07:48;;;;;;;59.90;22.50;;;;;;;2.32;57.05;102221.94;10280243;28;20069;-60
2023/02/09 20:12:50;;;;;;;51.58;21.35;;;;;;;2.25;57.21;102226.69;10279840;28;20094;-60
2023/02/09 20:17:51;;;;;;;42.53;20.67;;;;;;;2.26;57.84;102222.25;10279681;28;20051;-61
2023/02/09 20:22:53;;;;;;;49.67;22.45;;;;;;;2.18;57.35;102228.78;10292939;28;20070;-59
2023/02/09 20:27:55;;;;;;;44.97;20.92;;;;;;;2.11;57.82;102227.38;10289691;28;20054;-59
2023/02/09 20:32:56;;;;;;;48.10;21.92;;;;;;;2.05;58.36;102218.84;10277814;28;20055;-59
2023/02/09 20:37:57;;;;;;;47.60;22.10;;;;;;;1.97;57.92;102224.50;10273357;28;20102;-60
2023/02/09 20:48:19;;;;;;;43.40;20.48;;;;;;;1.81;57.92;102237.66;10276070;28;20115;-60
2023/02/09 20:53:21;;;;;;;47.63;22.02;;;;;;;1.76;59.06;102240.53;10277222;28;20050;-59
2023/02/09 20:58:23;;;;;;;52.90;22.40;;;;;;;1.70;58.64;102234.63;10278376;28;20051;-58
2023/02/09 21:03:25;;;;;;;48.85;20.48;;;;;;;1.63;59.27;102226.13;10278008;28;20543;-61
2023/02/09 21:08:26;;;;;;;46.38;20.13;;;;;;;1.58;58.32;102231.63;10276328;28;20070;-60
2023/02/09 21:13:27;;;;;;;54.22;22.95;;;;;;;1.51;59.40;102234.63;10278037;28;20059;-62
2023/02/09 21:18:29;;;;;;;57.80;25.95;;;;;;;1.36;59.22;102236.19;10276449;28;20047;-59
2023/02/09 21:23:30;;;;;;;46.72;21.38;;;;;;;1.17;59.69;102242.31;10276980;28;20055;-58
2023/02/09 21:28:32;;;;;;;41.47;18.90;;;;;;;1.02;59.45;102240.34;10288029;28;20073;-62
2023/02/09 21:33:34;;;;;;;49.20;19.67;;;;;;;1.01;60.35;102243.06;10283180;28;20043;-60
2023/02/09 21:38:40;;;;;;;49.45;22.40;;;;;;;1.01;60.49;102230.69;10279777;28;20061;-59
2023/02/09 21:43:42;;;;;;;53.05;21.83;;;;;;;1.00;59.69;102239.56;10264751;28;20046;-59
2023/02/09 21:48:43;;;;;;;50.28;22.83;;;;;;;0.98;60.41;102242.25;10276629;28;20109;-59
2023/02/09 21:53:47;;;;;;;45.75;21.23;;;;;;;0.92;60.20;102231.94;10271376;28;20051;-60
2023/02/09 21:58:48;;;;;;;69.40;22.98;;;;;;;0.91;60.07;102234.66;10276590;28;20047;-58
2023/02/09 22:03:55;;;;;;;45.67;20.20;;;;;;;0.88;60.68;102233.00;10274909;28;20481;-61
2023/02/09 22:09:01;;;;;;;48.78;23.52;;;;;;;0.82;60.73;102235.06;10271531;28;20046;-60
2023/02/09 22:14:03;;;;;;;49.80;23.02;;;;;;;0.77;60.93;102225.53;10277713;28;20051;-60
2023/02/09 22:19:04;;;;;;;45.22;22.08;;;;;;;0.73;61.15;102231.00;10281232;28;20129;-59
2023/02/09 22:24:06;;;;;;;47.03;22.15;;;;;;;0.66;61.14;102240.16;10275694;28;20109;-61
2023/02/09 22:29:09;;;;;;;45.95;22.73;;;;;;;0.63;60.44;102234.97;10274503;28;20368;-58
2023/02/09 22:34:10;;;;;;;45.80;20.65;;;;;;;0.58;60.90;102241.34;10275321;28;20067;-58
2023/02/09 22:39:12;;;;;;;54.15;21.88;;;;;;;0.50;61.35;102250.53;10256257;28;20054;-59
2023/02/09 22:44:14;;;;;;;50.90;22.40;;;;;;;0.48;61.07;102252.38;10276099;28;20474;-60
2023/02/09 22:49:18;;;;;;;49.67;24.08;;;;;;;0.40;61.70;102255.34;10280752;28;20085;-61
2023/02/09 22:54:20;;;;;;;51.75;23.08;;;;;;;0.37;61.76;102256.31;10280131;28;20569;-59
2023/02/09 22:59:21;;;;;;;45.92;21.55;;;;;;;0.31;62.10;102245.13;10276672;28;20077;-60
2023/02/09 23:04:23;;;;;;;45.50;22.27;;;;;;;0.31;61.37;102237.19;10267998;28;20526;-59
2023/02/09 23:09:24;;;;;;;46.60;20.77;;;;;;;0.29;61.84;102246.97;10271315;28;20055;-60
2023/02/09 23:14:26;;;;;;;40.72;20.00;;;;;;;0.26;61.69;102250.63;10266501;28;20081;-59
2023/02/09 23:19:27;;;;;;;52.55;22.13;;;;;;;0.22;61.63;102251.66;10272804;28;20093;-59
2023/02/09 23:24:28;;;;;;;50.58;22.23;;;;;;;0.16;61.82;102250.13;10275562;28;20360;-61